createdAt,value
2018-09-09T00:00:55.045Z,11.70
2018-09-09T00:03:23.520Z,11.60
2018-09-09T00:05:52.097Z,11.60
2018-09-09T00:08:20.582Z,11.60
2018-09-09T00:10:49.109Z,11.60
2018-09-09T00:13:17.559Z,11.60
2018-09-09T00:15:46.062Z,11.50
2018-09-09T00:18:14.554Z,11.50
2018-09-09T00:20:43.060Z,11.50
2018-09-09T00:23:11.569Z,11.50
2018-09-09T00:25:40.053Z,11.50
2018-09-09T00:28:08.482Z,11.50
2018-09-09T00:30:36.966Z,11.40
2018-09-09T00:33:05.507Z,11.50
2018-09-09T00:35:34.000Z,11.50
2018-09-09T00:38:02.491Z,11.50
2018-09-09T00:40:30.974Z,11.50
2018-09-09T00:42:59.444Z,11.50
2018-09-09T00:45:27.959Z,11.50
2018-09-09T00:47:56.469Z,11.00
2018-09-09T00:50:30.302Z,11.40
2018-09-09T00:53:04.022Z,11.40
2018-09-09T00:55:32.555Z,11.40
2018-09-09T00:58:01.016Z,11.30
2018-09-09T01:00:34.922Z,11.30
2018-09-09T01:03:03.386Z,11.30
2018-09-09T01:05:31.902Z,11.30
2018-09-09T01:08:00.368Z,11.30
2018-09-09T01:10:28.886Z,11.30
2018-09-09T01:12:58.199Z,11.20
2018-09-09T01:15:26.765Z,11.20
2018-09-09T01:17:55.282Z,11.20
2018-09-09T01:20:23.777Z,11.20
2018-09-09T01:22:52.239Z,11.10
2018-09-09T01:25:20.789Z,11.10
2018-09-09T01:27:49.261Z,11.10
2018-09-09T01:30:17.994Z,11.10
2018-09-09T01:32:46.465Z,11.10
2018-09-09T01:35:14.979Z,11.00
2018-09-09T01:37:43.499Z,11.00
2018-09-09T01:40:12.050Z,11.00
2018-09-09T01:42:40.546Z,11.00
2018-09-09T01:45:09.065Z,11.00
2018-09-09T01:47:37.552Z,11.00
2018-09-09T01:50:06.133Z,11.00
2018-09-09T01:52:34.591Z,11.00
2018-09-09T01:55:03.107Z,11.00
2018-09-09T01:57:31.577Z,11.00
2018-09-09T02:00:00.067Z,11.00
2018-09-09T02:02:28.515Z,11.00
2018-09-09T02:04:57.000Z,11.10
2018-09-09T02:07:25.549Z,11.10
2018-09-09T02:09:54.028Z,11.00
2018-09-09T02:12:22.538Z,11.00
2018-09-09T02:14:51.010Z,11.00
2018-09-09T02:17:19.546Z,11.00
2018-09-09T02:19:48.014Z,11.10
2018-09-09T02:22:16.514Z,11.10
2018-09-09T02:24:45.007Z,11.00
2018-09-09T02:27:13.527Z,11.10
2018-09-09T02:29:41.997Z,11.10
2018-09-09T02:32:10.464Z,11.00
2018-09-09T02:34:38.910Z,11.00
2018-09-09T02:37:07.407Z,11.00
2018-09-09T02:39:35.852Z,11.00
2018-09-09T02:42:04.454Z,11.00
2018-09-09T02:44:32.938Z,11.00
2018-09-09T02:47:01.516Z,11.00
2018-09-09T02:49:29.971Z,11.00
2018-09-09T02:51:58.678Z,11.10
2018-09-09T02:54:27.161Z,11.00
2018-09-09T02:56:55.647Z,11.00
2018-09-09T02:59:24.091Z,11.00
2018-09-09T03:01:52.575Z,11.00
2018-09-09T03:04:21.035Z,11.00
2018-09-09T03:06:49.550Z,11.00
2018-09-09T03:09:18.026Z,10.90
2018-09-09T03:11:46.505Z,10.90
2018-09-09T03:14:15.015Z,10.80
2018-09-09T03:16:43.550Z,10.90
2018-09-09T03:19:12.065Z,10.80
2018-09-09T03:21:40.521Z,10.80
2018-09-09T03:24:09.094Z,10.90
2018-09-09T03:26:37.570Z,10.90
2018-09-09T03:29:06.088Z,10.80
2018-09-09T03:31:34.554Z,10.70
2018-09-09T03:34:03.067Z,10.60
2018-09-09T03:36:31.540Z,10.50
2018-09-09T03:39:00.069Z,10.50
2018-09-09T03:41:28.543Z,10.40
2018-09-09T03:43:56.992Z,10.30
2018-09-09T03:46:26.454Z,10.30
2018-09-09T03:48:54.918Z,10.20
2018-09-09T03:51:23.402Z,10.20
2018-09-09T03:53:51.896Z,10.20
2018-09-09T03:56:20.321Z,10.20
2018-09-09T03:58:48.922Z,10.20
2018-09-09T04:01:17.383Z,10.20
2018-09-09T04:03:46.141Z,10.30
2018-09-09T04:06:14.669Z,10.20
2018-09-09T04:08:43.152Z,10.30
2018-09-09T04:11:12.203Z,10.30
2018-09-09T04:13:42.151Z,10.40
2018-09-09T04:16:11.819Z,10.40
2018-09-09T04:18:40.913Z,10.50
2018-09-09T04:21:09.723Z,10.60
2018-09-09T04:23:38.301Z,10.60
2018-09-09T04:26:07.185Z,10.70
2018-09-09T04:28:35.771Z,10.70
2018-09-09T04:31:04.371Z,10.80
2018-09-09T04:33:32.837Z,10.80
2018-09-09T04:36:01.317Z,10.80
2018-09-09T04:38:30.134Z,10.80
2018-09-09T04:40:58.606Z,10.80
2018-09-09T04:43:27.065Z,10.80
2018-09-09T04:45:55.590Z,10.80
2018-09-09T04:48:24.051Z,10.80
2018-09-09T04:50:52.589Z,10.80
2018-09-09T04:53:21.017Z,10.80
2018-09-09T04:55:49.496Z,10.80
2018-09-09T04:58:17.974Z,10.90
2018-09-09T05:00:46.575Z,10.90
2018-09-09T05:03:15.031Z,10.90
2018-09-09T05:05:43.473Z,10.90
2018-09-09T05:08:12.073Z,10.40
2018-09-09T05:10:41.716Z,11.00
2018-09-09T05:13:10.303Z,11.00
2018-09-09T05:15:38.734Z,11.00
2018-09-09T05:18:07.211Z,11.10
2018-09-09T05:20:35.689Z,11.10
2018-09-09T05:23:04.239Z,11.20
2018-09-09T05:25:32.672Z,11.20
2018-09-09T05:28:01.141Z,11.20
2018-09-09T05:30:29.607Z,11.20
2018-09-09T05:32:58.097Z,11.20
2018-09-09T05:35:26.516Z,11.20
2018-09-09T05:37:54.977Z,11.20
2018-09-09T05:40:23.432Z,11.20
2018-09-09T05:42:51.909Z,11.30
2018-09-09T05:45:20.419Z,11.30
2018-09-09T05:47:49.078Z,11.40
2018-09-09T05:50:17.664Z,11.50
2018-09-09T05:52:46.114Z,11.50
2018-09-09T05:55:14.551Z,11.60
2018-09-09T05:57:43.023Z,11.70
2018-09-09T06:00:11.518Z,11.70
2018-09-09T06:02:39.992Z,11.80
2018-09-09T06:05:08.502Z,11.90
2018-09-09T06:07:36.957Z,12.00
2018-09-09T06:10:05.749Z,12.10
2018-09-09T06:12:34.223Z,12.10
2018-09-09T06:15:02.738Z,12.20
2018-09-09T06:17:31.404Z,12.30
2018-09-09T06:19:59.850Z,12.40
2018-09-09T06:22:28.505Z,12.50
2018-09-09T06:24:57.205Z,12.50
2018-09-09T06:27:25.758Z,12.60
2018-09-09T06:29:54.178Z,12.80
2018-09-09T06:32:22.652Z,12.80
2018-09-09T06:34:51.106Z,13.00
2018-09-09T06:37:19.599Z,13.10
2018-09-09T06:39:48.071Z,13.20
2018-09-09T06:42:16.539Z,13.30
2018-09-09T06:44:44.991Z,13.40
2018-09-09T06:47:13.495Z,13.50
2018-09-09T06:49:41.930Z,13.60
2018-09-09T06:52:10.397Z,14.00
2018-09-09T06:54:38.846Z,13.90
2018-09-09T06:57:07.354Z,14.00
2018-09-09T06:59:35.817Z,14.10
2018-09-09T07:02:04.307Z,14.20
2018-09-09T07:04:32.773Z,14.30
2018-09-09T07:07:01.242Z,14.40
2018-09-09T07:09:29.685Z,14.50
2018-09-09T07:11:58.335Z,14.70
2018-09-09T07:14:26.667Z,14.70
2018-09-09T07:16:55.159Z,14.90
2018-09-09T07:19:23.654Z,15.10
2018-09-09T07:21:52.158Z,15.20
2018-09-09T07:24:20.721Z,15.30
2018-09-09T07:26:49.203Z,15.40
2018-09-09T07:29:17.715Z,15.50
2018-09-09T07:31:46.194Z,15.60
2018-09-09T07:34:14.661Z,15.60
2018-09-09T07:36:43.166Z,15.70
2018-09-09T07:39:11.626Z,15.90
2018-09-09T07:41:40.118Z,16.00
2018-09-09T07:44:08.719Z,16.10
2018-09-09T07:46:37.370Z,16.20
2018-09-09T07:49:06.011Z,16.40
2018-09-09T07:51:34.485Z,16.50
2018-09-09T07:54:02.991Z,16.60
2018-09-09T07:56:31.507Z,16.70
2018-09-09T07:59:00.094Z,16.80
2018-09-09T08:01:28.532Z,16.90
2018-09-09T08:03:57.025Z,17.00
2018-09-09T08:06:25.496Z,17.10
2018-09-09T08:08:53.958Z,17.20
2018-09-09T08:11:22.447Z,17.30
2018-09-09T08:13:51.143Z,17.30
2018-09-09T08:16:19.589Z,17.50
2018-09-09T08:18:48.142Z,17.60
2018-09-09T08:21:16.622Z,17.70
2018-09-09T08:23:45.228Z,17.80
2018-09-09T08:26:13.567Z,17.90
2018-09-09T08:28:42.050Z,18.00
2018-09-09T08:31:10.507Z,18.10
2018-09-09T08:33:39.042Z,18.30
2018-09-09T08:36:07.499Z,18.40
2018-09-09T08:38:36.093Z,18.50
2018-09-09T08:41:05.019Z,18.70
2018-09-09T08:43:33.474Z,18.90
2018-09-09T08:46:01.941Z,19.10
2018-09-09T08:48:30.431Z,19.20
2018-09-09T08:50:58.937Z,19.40
2018-09-09T08:53:27.490Z,19.50
2018-09-09T08:55:55.934Z,19.80
2018-09-09T08:58:24.446Z,19.90
2018-09-09T09:00:53.026Z,20.10
2018-09-09T09:03:21.535Z,20.40
2018-09-09T09:05:50.080Z,20.60
2018-09-09T09:08:18.550Z,20.80
2018-09-09T09:10:47.039Z,21.00
2018-09-09T09:13:15.498Z,21.10
2018-09-09T09:15:43.943Z,21.20
2018-09-09T09:18:12.431Z,21.20
2018-09-09T09:20:40.976Z,21.40
2018-09-09T09:23:09.504Z,21.50
2018-09-09T09:25:42.161Z,21.80
2018-09-09T09:28:10.650Z,22.10
2018-09-09T09:30:39.154Z,22.30
2018-09-09T09:33:07.643Z,22.50
2018-09-09T09:35:41.466Z,22.70
2018-09-09T09:38:10.013Z,22.90
2018-09-09T09:40:38.429Z,23.20
2018-09-09T09:43:06.887Z,23.40
2018-09-09T09:45:35.338Z,23.60
2018-09-09T09:48:03.810Z,23.70
2018-09-09T09:50:32.259Z,23.60
2018-09-09T09:53:00.772Z,23.50
2018-09-09T09:55:29.327Z,23.50
2018-09-09T09:57:58.168Z,23.60
2018-09-09T10:00:31.903Z,23.60
2018-09-09T10:03:00.419Z,23.40
2018-09-09T10:05:28.857Z,23.90
2018-09-09T10:07:57.357Z,24.20
2018-09-09T10:10:25.802Z,24.40
2018-09-09T10:12:54.256Z,24.30
2018-09-09T10:15:22.707Z,24.50
2018-09-09T10:17:51.175Z,24.70
2018-09-09T10:20:19.704Z,25.20
2018-09-09T10:22:48.259Z,25.60
2018-09-09T10:25:16.768Z,25.90
2018-09-09T10:27:45.251Z,26.00
2018-09-09T10:30:13.707Z,25.90
2018-09-09T10:32:42.163Z,25.90
2018-09-09T10:35:10.616Z,26.20
2018-09-09T10:37:39.095Z,26.40
2018-09-09T10:40:07.571Z,26.60
2018-09-09T10:42:36.038Z,26.80
2018-09-09T10:45:04.554Z,27.00
2018-09-09T10:47:33.014Z,26.70
2018-09-09T10:50:01.463Z,26.50
2018-09-09T10:52:29.951Z,25.90
2018-09-09T10:54:58.427Z,26.00
2018-09-09T10:57:26.885Z,26.20
2018-09-09T10:59:55.350Z,26.30
2018-09-09T11:02:23.995Z,26.20
2018-09-09T11:04:52.432Z,26.40
2018-09-09T11:07:20.948Z,26.60
2018-09-09T11:09:49.392Z,26.90
2018-09-09T11:12:18.031Z,27.40
2018-09-09T11:14:46.486Z,27.60
2018-09-09T11:17:14.922Z,27.40
2018-09-09T11:19:43.559Z,27.50
2018-09-09T11:22:12.011Z,27.70
2018-09-09T11:24:40.537Z,28.00
2018-09-09T11:27:09.061Z,28.00
2018-09-09T11:29:37.489Z,28.30
2018-09-09T11:32:05.955Z,28.40
2018-09-09T11:34:34.470Z,28.50
2018-09-09T11:37:02.949Z,28.50
2018-09-09T11:39:31.454Z,28.30
2018-09-09T11:41:59.928Z,28.30
2018-09-09T11:44:28.423Z,28.30
2018-09-09T11:46:56.871Z,28.30
2018-09-09T11:49:25.358Z,27.90
2018-09-09T11:51:53.814Z,27.80
2018-09-09T11:54:22.307Z,27.80
2018-09-09T11:56:50.758Z,27.90
2018-09-09T11:59:19.265Z,28.30
2018-09-09T12:01:47.818Z,28.40
2018-09-09T12:04:16.306Z,27.90
2018-09-09T12:06:44.803Z,28.10
2018-09-09T12:09:13.309Z,27.90
2018-09-09T12:11:41.778Z,27.70
2018-09-09T12:14:10.237Z,27.60
2018-09-09T12:16:38.716Z,27.10
2018-09-09T12:19:07.174Z,27.00
2018-09-09T12:21:35.661Z,26.70
2018-09-09T12:24:04.178Z,26.60
2018-09-09T12:26:32.661Z,26.50
2018-09-09T12:29:01.180Z,26.50
2018-09-09T12:31:29.636Z,26.40
2018-09-09T12:33:58.125Z,26.40
2018-09-09T12:36:26.582Z,26.30
2018-09-09T12:38:55.074Z,26.30
2018-09-09T12:41:23.611Z,26.20
2018-09-09T12:43:57.495Z,26.60
2018-09-09T12:46:31.332Z,27.10
2018-09-09T12:49:02.625Z,27.50
2018-09-09T12:51:35.444Z,27.70
2018-09-09T12:54:03.936Z,27.50
2018-09-09T12:56:32.387Z,27.40
2018-09-09T12:59:00.894Z,27.00
2018-09-09T13:01:29.691Z,26.80
2018-09-09T13:03:58.574Z,26.50
2018-09-09T13:06:27.142Z,26.50
2018-09-09T13:08:55.698Z,26.80
2018-09-09T13:11:24.166Z,27.00
2018-09-09T13:13:52.711Z,27.20
2018-09-09T13:16:21.254Z,27.40
2018-09-09T13:18:50.555Z,27.50
2018-09-09T13:21:19.057Z,27.20
2018-09-09T13:23:47.547Z,27.10
2018-09-09T13:26:16.085Z,27.10
2018-09-09T13:28:44.567Z,27.10
2018-09-09T13:31:13.527Z,27.40
2018-09-09T13:33:42.106Z,27.70
2018-09-09T13:36:11.210Z,27.70
2018-09-09T13:38:39.783Z,27.70
2018-09-09T13:41:08.255Z,27.90
2018-09-09T13:43:36.763Z,27.80
2018-09-09T13:46:05.367Z,27.50
2018-09-09T13:48:33.902Z,27.40
2018-09-09T13:51:02.341Z,27.10
2018-09-09T13:53:30.847Z,27.50
2018-09-09T13:55:59.304Z,27.50
2018-09-09T13:58:27.827Z,27.40
2018-09-09T14:00:56.309Z,27.20
2018-09-09T14:03:24.779Z,27.10
2018-09-09T14:05:53.275Z,27.10
2018-09-09T14:08:21.913Z,27.30
2018-09-09T14:10:50.379Z,27.50
2018-09-09T14:13:18.909Z,27.90
2018-09-09T14:15:47.430Z,28.30
2018-09-09T14:18:15.916Z,28.40
2018-09-09T14:20:44.493Z,28.80
2018-09-09T14:23:13.060Z,28.80
2018-09-09T14:25:41.554Z,28.90
2018-09-09T14:28:10.070Z,29.10
2018-09-09T14:30:38.595Z,29.10
2018-09-09T14:33:07.420Z,29.10
2018-09-09T14:35:36.031Z,29.20
2018-09-09T14:38:04.645Z,29.20
2018-09-09T14:40:33.244Z,29.20
2018-09-09T14:43:01.865Z,28.70
2018-09-09T14:45:30.326Z,28.60
2018-09-09T14:47:58.843Z,28.70
2018-09-09T14:50:27.468Z,28.70
2018-09-09T14:52:55.952Z,28.80
2018-09-09T14:55:24.410Z,28.70
2018-09-09T14:57:52.906Z,28.70
2018-09-09T15:00:21.470Z,28.70
2018-09-09T15:02:49.921Z,28.70
2018-09-09T15:05:18.402Z,28.60
2018-09-09T15:07:46.926Z,28.60
2018-09-09T15:10:15.473Z,28.50
2018-09-09T15:12:44.827Z,28.40
2018-09-09T15:15:13.278Z,28.40
2018-09-09T15:17:41.932Z,28.10
2018-09-09T15:20:10.446Z,27.90
2018-09-09T15:22:39.118Z,27.70
2018-09-09T15:25:07.660Z,27.50
2018-09-09T15:27:36.215Z,27.40
2018-09-09T15:30:04.845Z,27.30
2018-09-09T15:32:33.499Z,27.00
2018-09-09T15:35:02.003Z,26.90
2018-09-09T15:37:30.570Z,26.90
2018-09-09T15:39:59.256Z,26.80
2018-09-09T15:42:27.672Z,26.80
2018-09-09T15:44:56.108Z,26.80
2018-09-09T15:47:24.639Z,26.70
2018-09-09T15:49:53.092Z,26.60
2018-09-09T15:52:21.595Z,26.50
2018-09-09T15:54:50.064Z,26.50
2018-09-09T15:57:18.572Z,26.40
2018-09-09T15:59:47.008Z,26.30
2018-09-09T16:02:15.468Z,26.20
2018-09-09T16:04:43.922Z,26.10
2018-09-09T16:07:12.449Z,26.00
2018-09-09T16:09:40.910Z,25.80
2018-09-09T16:12:13.626Z,25.70
2018-09-09T16:14:42.074Z,25.60
2018-09-09T16:17:10.604Z,25.50
2018-09-09T16:19:39.041Z,25.50
2018-09-09T16:22:07.716Z,25.40
2018-09-09T16:24:36.194Z,25.30
2018-09-09T16:27:04.715Z,25.10
2018-09-09T16:29:33.195Z,25.10
2018-09-09T16:32:01.691Z,25.00
2018-09-09T16:34:30.121Z,24.90
2018-09-09T16:36:58.586Z,24.80
2018-09-09T16:39:27.080Z,24.70
2018-09-09T16:41:55.623Z,24.60
2018-09-09T16:44:24.082Z,24.40
2018-09-09T16:46:52.613Z,24.30
2018-09-09T16:49:21.077Z,24.20
2018-09-09T16:51:49.619Z,24.10
2018-09-09T16:54:18.103Z,23.90
2018-09-09T16:56:46.594Z,23.90
2018-09-09T16:59:15.197Z,23.80
2018-09-09T17:01:43.727Z,23.70
2018-09-09T17:04:12.188Z,23.60
2018-09-09T17:06:40.863Z,23.50
2018-09-09T17:09:10.451Z,23.40
2018-09-09T17:11:39.290Z,23.30
2018-09-09T17:14:08.543Z,23.20
2018-09-09T17:16:37.069Z,23.10
2018-09-09T17:19:05.505Z,23.00
2018-09-09T17:21:34.019Z,22.90
2018-09-09T17:24:02.511Z,22.80
2018-09-09T17:26:30.983Z,22.60
2018-09-09T17:28:59.418Z,22.50
2018-09-09T17:31:27.883Z,22.40
2018-09-09T17:33:56.351Z,22.30
2018-09-09T17:36:24.817Z,22.20
2018-09-09T17:38:53.332Z,22.10
2018-09-09T17:41:21.880Z,22.00
2018-09-09T17:43:50.578Z,21.90
2018-09-09T17:46:19.053Z,21.80
2018-09-09T17:48:47.526Z,21.70
2018-09-09T17:51:15.979Z,21.60
2018-09-09T17:53:44.501Z,21.50
2018-09-09T17:56:12.955Z,21.40
2018-09-09T17:58:41.425Z,21.20
2018-09-09T18:01:09.981Z,21.10
2018-09-09T18:03:38.524Z,21.00
2018-09-09T18:06:07.051Z,20.90
2018-09-09T18:08:36.012Z,20.80
2018-09-09T18:11:04.783Z,20.60
2018-09-09T18:13:33.175Z,20.50
2018-09-09T18:16:01.789Z,20.30
2018-09-09T18:18:30.225Z,20.20
2018-09-09T18:20:58.760Z,20.10
2018-09-09T18:23:27.221Z,19.90
2018-09-09T18:25:55.779Z,19.90
2018-09-09T18:28:24.372Z,19.80
2018-09-09T18:30:53.025Z,19.70
2018-09-09T18:33:21.531Z,19.40
2018-09-09T18:35:50.119Z,19.40
2018-09-09T18:38:19.740Z,19.30
2018-09-09T18:40:48.596Z,19.20
2018-09-09T18:43:18.111Z,19.20
2018-09-09T18:45:46.677Z,19.10
2018-09-09T18:48:16.184Z,18.90
2018-09-09T18:50:47.755Z,18.80
2018-09-09T18:53:16.799Z,18.70
2018-09-09T18:55:45.948Z,18.60
2018-09-09T18:58:15.147Z,18.50
2018-09-09T19:00:44.383Z,18.50
2018-09-09T19:03:13.227Z,18.50
2018-09-09T19:05:42.198Z,18.40
2018-09-09T19:08:12.065Z,18.30
2018-09-09T19:10:43.497Z,18.30
2018-09-09T19:13:11.987Z,18.20
2018-09-09T19:15:40.600Z,18.20
2018-09-09T19:18:09.094Z,18.20
2018-09-09T19:20:37.661Z,18.10
2018-09-09T19:23:06.155Z,18.00
2018-09-09T19:25:36.280Z,17.90
2018-09-09T19:28:04.878Z,17.80
2018-09-09T19:30:33.355Z,17.80
2018-09-09T19:33:03.438Z,17.70
2018-09-09T19:35:31.984Z,17.70
2018-09-09T19:38:00.669Z,17.60
2018-09-09T19:40:29.403Z,17.60
2018-09-09T19:42:58.009Z,17.50
2018-09-09T19:45:26.546Z,17.40
2018-09-09T19:47:55.790Z,17.30
2018-09-09T19:50:25.063Z,17.20
2018-09-09T19:52:53.588Z,17.00
2018-09-09T19:55:22.791Z,16.90
2018-09-09T19:57:51.741Z,16.80
2018-09-09T20:00:20.302Z,16.70
2018-09-09T20:02:48.774Z,16.70
2018-09-09T20:05:17.924Z,16.70
2018-09-09T20:07:46.446Z,16.60
2018-09-09T20:10:15.329Z,16.60
2018-09-09T20:12:43.898Z,16.50
2018-09-09T20:15:12.445Z,16.40
2018-09-09T20:17:42.195Z,16.40
2018-09-09T20:20:10.762Z,16.30
2018-09-09T20:22:39.230Z,16.30
2018-09-09T20:25:07.812Z,16.30
2018-09-09T20:27:36.239Z,16.20
2018-09-09T20:30:04.776Z,16.20
2018-09-09T20:32:33.273Z,16.10
2018-09-09T20:35:01.781Z,16.00
2018-09-09T20:37:30.205Z,16.00
2018-09-09T20:39:58.653Z,16.00
2018-09-09T20:42:27.188Z,15.90
2018-09-09T20:44:55.690Z,15.80
2018-09-09T20:47:24.131Z,15.70
2018-09-09T20:49:52.619Z,15.60
2018-09-09T20:52:21.055Z,15.60
2018-09-09T20:54:49.530Z,15.60
2018-09-09T20:57:17.970Z,15.50
2018-09-09T20:59:46.423Z,15.50
2018-09-09T21:02:14.879Z,15.40
2018-09-09T21:04:43.356Z,15.40
2018-09-09T21:07:11.794Z,15.30
2018-09-09T21:09:40.433Z,15.20
2018-09-09T21:12:08.926Z,15.20
2018-09-09T21:14:37.425Z,15.10
2018-09-09T21:17:05.948Z,15.00
2018-09-09T21:19:34.483Z,14.90
2018-09-09T21:22:03.063Z,14.90
2018-09-09T21:24:31.541Z,14.80
2018-09-09T21:26:59.978Z,14.80
2018-09-09T21:29:28.485Z,14.80
2018-09-09T21:31:56.960Z,14.70
2018-09-09T21:34:25.581Z,14.70
2018-09-09T21:36:54.035Z,14.70
2018-09-09T21:39:22.477Z,14.60
2018-09-09T21:41:51.151Z,14.60
2018-09-09T21:44:19.610Z,14.60
2018-09-09T21:46:48.319Z,14.60
2018-09-09T21:49:16.914Z,14.50
2018-09-09T21:51:45.480Z,14.50
2018-09-09T21:54:13.927Z,14.40
2018-09-09T21:56:42.767Z,14.40
2018-09-09T21:59:11.286Z,14.40
2018-09-09T22:01:44.976Z,14.30
2018-09-09T22:04:13.446Z,14.30
2018-09-09T22:06:41.947Z,14.20
2018-09-09T22:09:10.428Z,14.20
2018-09-09T22:11:39.273Z,14.00
2018-09-09T22:14:07.765Z,13.90
2018-09-09T22:16:36.251Z,13.80
2018-09-09T22:19:04.778Z,13.80
2018-09-09T22:21:33.266Z,13.80
2018-09-09T22:24:01.739Z,13.80
2018-09-09T22:26:30.219Z,13.70
2018-09-09T22:28:58.704Z,13.70
2018-09-09T22:31:27.207Z,13.70
2018-09-09T22:33:55.665Z,13.70
2018-09-09T22:36:24.167Z,13.70
2018-09-09T22:38:52.618Z,13.10
2018-09-09T22:41:21.122Z,13.50
2018-09-09T22:43:49.580Z,13.40
2018-09-09T22:46:18.102Z,13.40
2018-09-09T22:48:46.668Z,13.40
2018-09-09T22:51:15.180Z,13.40
2018-09-09T22:53:43.643Z,13.50
2018-09-09T22:56:12.146Z,13.50
2018-09-09T22:58:40.604Z,13.50
2018-09-09T23:01:09.130Z,13.50
2018-09-09T23:03:37.589Z,13.50
2018-09-09T23:06:06.078Z,13.50
2018-09-09T23:08:34.537Z,13.50
2018-09-09T23:11:03.027Z,13.50
2018-09-09T23:13:31.493Z,13.50
2018-09-09T23:16:00.000Z,13.40
2018-09-09T23:18:28.458Z,13.30
2018-09-09T23:20:56.992Z,13.30
2018-09-09T23:23:25.454Z,13.30
2018-09-09T23:25:53.950Z,13.20
2018-09-09T23:28:22.398Z,13.10
2018-09-09T23:30:51.019Z,13.10
2018-09-09T23:33:19.486Z,13.00
2018-09-09T23:35:47.983Z,13.10
2018-09-09T23:38:17.429Z,13.00
2018-09-09T23:40:45.942Z,13.00
2018-09-09T23:43:14.386Z,13.00
2018-09-09T23:45:42.873Z,13.00
2018-09-09T23:48:11.306Z,12.90
2018-09-09T23:50:39.774Z,12.90
2018-09-09T23:53:08.307Z,12.90
2018-09-09T23:55:36.877Z,12.90
2018-09-09T23:58:05.406Z,12.80
